| time (UTC) | temp F | wind direction | speed knots | gust knots | rain 1hr in | rain 24hr in | rain mn in | humidity % | barometer mb |
| 20260508111503 | 70 | 0 | 4.3 | 0.0 | 0.00 | 0.00 | 0.00 | 32 | 1021.0 |
| 20260508110005 | 70 | 0 | 4.3 | 0.0 | 0.00 | 0.00 | 0.00 | 32 | 1021.0 |
| 20260508104504 | 68 | 270 | 7.8 | 0.0 | 0.00 | 0.00 | 0.00 | 32 | 1021.0 |
| 20260508103004 | 68 | 270 | 7.8 | 0.0 | 0.00 | 0.00 | 0.00 | 32 | 1021.0 |
| 20260508101504 | 68 | 160 | 6.1 | 0.0 | 0.00 | 0.00 | 0.00 | 37 | 1021.0 |
| 20260508091504 | 64 | 270 | 5.2 | 0.0 | 0.00 | 0.00 | 0.00 | 42 | 1021.0 |
| 20260508090004 | 64 | 270 | 5.2 | 0.0 | 0.00 | 0.00 | 0.00 | 42 | 1021.0 |
| 20260508084504 | 63 | 280 | 6.1 | 0.0 | 0.00 | 0.00 | 0.00 | 51 | 1022.0 |
| 20260508083004 | 63 | 280 | 6.1 | 0.0 | 0.00 | 0.00 | 0.00 | 51 | 1022.0 |
| 20260508081504 | 63 | 220 | 4.3 | 0.0 | 0.00 | 0.00 | 0.00 | 51 | 1022.0 |
| 20260508064504 | 55 | 0 | 1.7 | 0.0 | 0.00 | 0.00 | 0.00 | 62 | 1022.0 |
| 20260508061504 | 54 | 0 | 0.9 | 0.0 | 0.00 | 0.00 | 0.00 | 62 | 1022.0 |
| 20260508060004 | 54 | 0 | 0.9 | 0.0 | 0.00 | 0.00 | 0.00 | 62 | 1022.0 |
| 20260508053004 | 48 | 0 | 0.9 | 0.0 | 0.00 | 0.00 | 0.00 | 76 | 1022.0 |
| 20260508050005 | 43 | 0 | 1.7 | 0.0 | 0.00 | 0.00 | 0.00 | 87 | 1022.0 |
| 20260508044504 | 41 | 10 | 2.6 | 0.0 | 0.00 | 0.00 | 0.00 | 86 | 1022.0 |
| 20260508043004 | 41 | 0 | 0.9 | 0.0 | 0.00 | 0.00 | 0.00 | 86 | 1021.0 |
| 20260508041504 | 41 | 0 | 0.9 | 0.0 | 0.00 | 0.00 | 0.00 | 86 | 1021.0 |
| 20260508040005 | 41 | 0 | 0.9 | 0.0 | 0.00 | 0.00 | 0.00 | 86 | 1021.0 |
| 20260508034504 | 39 | 0 | 1.7 | 0.0 | 0.00 | 0.00 | 0.00 | 86 | 1021.0 |
| 20260508033005 | 39 | 0 | 1.7 | 0.0 | 0.00 | 0.00 | 0.00 | 86 | 1021.0 |
| 20260508024504 | 41 | 50 | 1.7 | 0.0 | 0.00 | 0.00 | 0.00 | 86 | 1021.0 |
| 20260508023004 | 41 | 50 | 1.7 | 0.0 | 0.00 | 0.00 | 0.00 | 86 | 1021.0 |
| 20260508021504 | 41 | 40 | 4.3 | 0.0 | 0.00 | 0.00 | 0.00 | 86 | 1021.0 |
| 20260508020004 | 41 | 40 | 4.3 | 0.0 | 0.00 | 0.00 | 0.00 | 86 | 1021.0 |
| 20260508013004 | 45 | 60 | 2.6 | 0.0 | 0.00 | 0.00 | 0.00 | 81 | 1021.0 |
| 20260508004502 | 45 | 0 | 0.9 | 0.0 | 0.00 | 0.00 | 0.00 | 87 | 1021.0 |
| 20260508000004 | 45 | 30 | 4.3 | 0.0 | 0.00 | 0.00 | 0.00 | 87 | 1021.0 |
| 20260507234504 | 48 | 0 | 1.7 | 0.0 | 0.00 | 0.00 | 0.00 | 76 | 1021.0 |
| 20260507231504 | 48 | 30 | 4.3 | 0.0 | 0.00 | 0.00 | 0.00 | 76 | 1021.0 |
| 20260507224504 | 52 | 0 | 1.7 | 0.0 | 0.00 | 0.00 | 0.00 | 71 | 1021.0 |
| 20260507220004 | 52 | 0 | 1.7 | 0.0 | 0.00 | 0.00 | 0.00 | 71 | 1021.0 |
| 20260507214504 | 55 | 120 | 2.6 | 0.0 | 0.00 | 0.00 | 0.00 | 62 | 1021.0 |
| 20260507213004 | 55 | 120 | 2.6 | 0.0 | 0.00 | 0.00 | 0.00 | 62 | 1021.0 |
| 20260507211504 | 54 | 0 | 1.7 | 0.0 | 0.00 | 0.00 | 0.00 | 66 | 1021.0 |
| 20260507210005 | 54 | 0 | 1.7 | 0.0 | 0.00 | 0.00 | 0.00 | 66 | 1021.0 |
| 20260507203005 | 54 | 20 | 5.2 | 0.0 | 0.00 | 0.00 | 0.00 | 66 | 1020.0 |
| 20260507201504 | 55 | 50 | 4.3 | 0.0 | 0.00 | 0.00 | 0.00 | 62 | 1020.0 |
| 20260507200004 | 55 | 50 | 4.3 | 0.0 | 0.00 | 0.00 | 0.00 | 62 | 1020.0 |
| 20260507193004 | 57 | 110 | 2.6 | 0.0 | 0.00 | 0.00 | 0.00 | 54 | 1020.0 |
| 20260507190005 | 55 | 90 | 2.6 | 0.0 | 0.00 | 0.00 | 0.00 | 58 | 1020.0 |
| 20260507184504 | 59 | 0 | 0.9 | 0.0 | 0.00 | 0.00 | 0.00 | 47 | 1020.0 |
| 20260507183004 | 59 | 0 | 0.9 | 0.0 | 0.00 | 0.00 | 0.00 | 47 | 1020.0 |
| 20260507180004 | 57 | 0 | 0.9 | 0.0 | 0.00 | 0.00 | 0.00 | 54 | 1019.0 |
| 20260507174504 | 59 | 250 | 2.6 | 0.0 | 0.00 | 0.00 | 0.00 | 47 | 1019.0 |
| 20260507173004 | 59 | 250 | 2.6 | 0.0 | 0.00 | 0.00 | 0.00 | 47 | 1019.0 |
| 20260507171504 | 61 | 270 | 4.3 | 0.0 | 0.00 | 0.00 | 0.00 | 44 | 1019.0 |
| 20260507170005 | 61 | 270 | 4.3 | 0.0 | 0.00 | 0.00 | 0.00 | 44 | 1019.0 |
| 20260507164504 | 63 | 270 | 7.0 | 0.0 | 0.00 | 0.00 | 0.00 | 36 | 1019.0 |
| 20260507163004 | 63 | 270 | 7.0 | 0.0 | 0.00 | 0.00 | 0.00 | 36 | 1019.0 |
| 20260507161503 | 64 | 260 | 7.0 | 0.0 | 0.00 | 0.00 | 0.00 | 34 | 1019.0 |
| 20260507154504 | 64 | 250 | 7.8 | 0.0 | 0.00 | 0.00 | 0.00 | 34 | 1019.0 |
| 20260507153004 | 64 | 250 | 7.8 | 0.0 | 0.00 | 0.00 | 0.00 | 34 | 1019.0 |
| 20260507151504 | 66 | 260 | 6.1 | 0.0 | 0.00 | 0.00 | 0.00 | 32 | 1019.0 |
| 20260507150005 | 66 | 260 | 6.1 | 0.0 | 0.00 | 0.00 | 0.00 | 32 | 1019.0 |
| 20260507144503 | 64 | 250 | 7.0 | 0.0 | 0.00 | 0.00 | 0.00 | 31 | 1019.0 |
| 20260507143005 | 64 | 250 | 7.0 | 0.0 | 0.00 | 0.00 | 0.00 | 31 | 1019.0 |
| 20260507134504 | 64 | 310 | 6.1 | 0.0 | 0.00 | 0.00 | 0.00 | 36 | 1019.0 |
| 20260507133004 | 64 | 310 | 6.1 | 0.0 | 0.00 | 0.00 | 0.00 | 36 | 1019.0 |
| 20260507131504 | 64 | 0 | 5.2 | 0.0 | 0.00 | 0.00 | 0.00 | 36 | 1019.0 |
| 20260507124503 | 64 | 230 | 7.8 | 0.0 | 0.00 | 0.00 | 0.00 | 39 | 1020.0 |
| 20260507121503 | 63 | 180 | 4.3 | 0.0 | 0.00 | 0.00 | 0.00 | 42 | 1020.0 |
| 20260507120005 | 63 | 180 | 4.3 | 0.0 | 0.00 | 0.00 | 0.00 | 42 | 1020.0 |
| 20260507113005 | 63 | 0 | 4.3 | 0.0 | 0.00 | 0.00 | 0.00 | 42 | 1020.0 |